Terminal Aerodrome Forecast
Issued by NWS

Home | Current Version | Previous Version | Text Only | Print | Product List | Glossary On
Versions: 1 2 3 4 5 6 7 8 9 10 11 12 13 14 15 16
000
FTUS44 KLZK 041100 CCA
TAFADF
TAF COR
KADF 041141Z 0412/0512 00000KT 6SM BR SKC
      TEMPO 0412/0414 3SM BR
     FM041400 VRB03KT P6SM SCT250
     FM041700 16010KT P6SM SCT060 SCT250
     FM050000 14008KT P6SM SCT250=

USA.gov is the U.S. government's official web portal to all federal, state and local government web resources and services.